YBHM

Hamilton Island Airport

Airport
ICAO code
YBHM
IATA Code
HTI
Summary
ICAO Region
APAC
ICAO Territory
Location

, Queensland

Serving
Hamilton Island
Elevation
15 ft
Coordinates
20° 21' 29" S , 148° 57' 7" E
Metar
Observation
YBHM 021200Z AUTO 12021KT //// // SCT031 25/19 Q1009 RF00.0/000.0
Station
HAMILTON ISLAND
Date/Time
2022-12-02 12:00:00
Wind direction
120°
Wind speed
21 kts
Lowest cloud amount
scattered clouds
Temperature
25°C
Dew point
19°C
Humidity
69%
QNH
1009 hPa
Weather condition
n/a

Airport map

Aerial View

SKYbrary Partners:

Safety knowledge contributed by: